PWSweather.com
Personal Weather Stations
Station Observations
KOHCLEVE171
Cleveland, OH

Cleveland, OH

Lat: 41.48646164, Lon: -81.46408081

Elevation: 1059

Station Type:

High Low Average
Temperature 30.0°F-1.1°C 22.8°F-5.1°C 27.5°F-2.5°C
Dew Point 25.9°F-3.4°C 20.3°F-6.5°C 23.6°F-4.7°C
Winds 8.7 mph 14.0 kmh Calm Calm 2.0 mph ENE3.2 kmh ENE
Wind Gusts 15.7 mph25.3 kmh -- 4.0 mph6.4 kmh
Humidity 90% 79% 85%
Pressure 30.24 in1024.0 mb 29.69 in1005.4 mb -
Precipitation 0.00 in0.0 mm - -
Hour Temp Dew Point Humidity Winds Wind Gusts Pressure Precip Precip Rate Daily Precip Total
12:04 AM 30.0°F-1.1°C 25.0°F-3.9°C 81% 1.3 mph ENE2.1 kmh ENE 1.8 mph2.9 kmh 30.24 in1024.0 mb 0.00 in0.0 mm 0.00 in0.0 mm 0.00 in0.0 mm
12:09 AM 30.0°F-1.1°C 25.5°F-3.6°C 83% 0.4 mph ENE0.6 kmh ENE 1.1 mph1.8 kmh 30.24 in1024.0 mb 0.00 in0.0 mm 0.00 in0.0 mm 0.00 in0.0 mm
12:14 AM 30.0°F-1.1°C 25.5°F-3.6°C 83% 0.7 mph ENE1.1 kmh ENE 1.3 mph2.1 kmh 30.24 in1024.0 mb 0.00 in0.0 mm 0.00 in0.0 mm 0.00 in0.0 mm
12:19 AM 30.2°F-1.0°C 25.7°F-3.5°C 83% 0.7 mph ENE1.1 kmh ENE 1.3 mph2.1 kmh 30.24 in1024.0 mb 0.00 in0.0 mm 0.00 in0.0 mm 0.00 in0.0 mm
12:24 AM 30.2°F-1.0°C 25.7°F-3.5°C 83% 0.9 mph ENE1.4 kmh ENE 1.3 mph2.1 kmh 30.24 in1024.0 mb 0.00 in0.0 mm 0.00 in0.0 mm 0.00 in0.0 mm
12:29 AM 30.0°F-1.1°C 25.5°F-3.6°C 83% 1.1 mph NE1.8 kmh NE 1.3 mph2.1 kmh 30.24 in1024.0 mb 0.00 in0.0 mm 0.00 in0.0 mm 0.00 in0.0 mm
12:34 AM 30.0°F-1.1°C 25.0°F-3.9°C 81% 0.4 mph ENE0.6 kmh ENE 1.1 mph1.8 kmh 30.23 in1023.7 mb 0.00 in0.0 mm 0.00 in0.0 mm 0.00 in0.0 mm
12:39 AM 30.0°F-1.1°C 25.5°F-3.6°C 83% Calm Calm -- 30.23 in1023.7 mb 0.00 in0.0 mm 0.00 in0.0 mm 0.00 in0.0 mm
12:44 AM 30.0°F-1.1°C 25.5°F-3.6°C 83% Calm Calm -- 30.24 in1024.0 mb 0.00 in0.0 mm 0.00 in0.0 mm 0.00 in0.0 mm
12:49 AM 29.8°F-1.2°C 25.3°F-3.7°C 83% Calm Calm -- 30.24 in1024.0 mb 0.00 in0.0 mm 0.00 in0.0 mm 0.00 in0.0 mm
12:54 AM 29.8°F-1.2°C 25.3°F-3.7°C 83% Calm Calm -- 30.23 in1023.7 mb 0.00 in0.0 mm 0.00 in0.0 mm 0.00 in0.0 mm
01:04 AM 30.0°F-1.1°C 25.5°F-3.6°C 83% Calm Calm -- 30.24 in1024.0 mb 0.00 in0.0 mm 0.00 in0.0 mm 0.00 in0.0 mm
01:09 AM 29.8°F-1.2°C 25.3°F-3.7°C 83% Calm Calm -- 30.24 in1024.0 mb 0.00 in0.0 mm 0.00 in0.0 mm 0.00 in0.0 mm
01:14 AM 29.8°F-1.2°C 25.3°F-3.7°C 83% 0.9 mph NE1.4 kmh NE 1.3 mph2.1 kmh 30.23 in1023.7 mb 0.00 in0.0 mm 0.00 in0.0 mm 0.00 in0.0 mm
01:19 AM 29.8°F-1.2°C 25.3°F-3.7°C 83% 0.7 mph NE1.1 kmh NE 1.1 mph1.8 kmh 30.23 in1023.7 mb 0.00 in0.0 mm 0.00 in0.0 mm 0.00 in0.0 mm
01:24 AM 29.8°F-1.2°C 25.3°F-3.7°C 83% 0.7 mph E1.1 kmh E 1.3 mph2.1 kmh 30.23 in1023.7 mb 0.00 in0.0 mm 0.00 in0.0 mm 0.00 in0.0 mm
01:29 AM 29.8°F-1.2°C 25.3°F-3.7°C 83% 0.9 mph ENE1.4 kmh ENE 1.8 mph2.9 kmh 30.23 in1023.7 mb 0.00 in0.0 mm 0.00 in0.0 mm 0.00 in0.0 mm
01:34 AM 29.8°F-1.2°C 25.3°F-3.7°C 83% 1.1 mph SE1.8 kmh SE 1.3 mph2.1 kmh 30.23 in1023.7 mb 0.00 in0.0 mm 0.00 in0.0 mm 0.00 in0.0 mm
01:39 AM 29.8°F-1.2°C 25.3°F-3.7°C 83% 0.9 mph SE1.4 kmh SE 1.3 mph2.1 kmh 30.23 in1023.7 mb 0.00 in0.0 mm 0.00 in0.0 mm 0.00 in0.0 mm
01:44 AM 29.8°F-1.2°C 25.3°F-3.7°C 83% Calm Calm -- 30.22 in1023.4 mb 0.00 in0.0 mm 0.00 in0.0 mm 0.00 in0.0 mm
01:49 AM 30.0°F-1.1°C 25.5°F-3.6°C 83% 0.7 mph E1.1 kmh E 1.1 mph1.8 kmh 30.22 in1023.4 mb 0.00 in0.0 mm 0.00 in0.0 mm 0.00 in0.0 mm
01:54 AM 29.8°F-1.2°C 25.3°F-3.7°C 83% Calm Calm -- 30.22 in1023.4 mb 0.00 in0.0 mm 0.00 in0.0 mm 0.00 in0.0 mm
01:59 AM 29.8°F-1.2°C 25.3°F-3.7°C 83% 0.9 mph NE1.4 kmh NE 1.3 mph2.1 kmh 30.22 in1023.4 mb 0.00 in0.0 mm 0.00 in0.0 mm 0.00 in0.0 mm
02:04 AM 29.8°F-1.2°C 25.3°F-3.7°C 83% Calm Calm 0.9 mph1.4 kmh 30.23 in1023.7 mb 0.00 in0.0 mm 0.00 in0.0 mm 0.00 in0.0 mm
02:09 AM 29.7°F-1.3°C 25.2°F-3.8°C 83% 0.7 mph SSW1.1 kmh SSW 1.1 mph1.8 kmh 30.23 in1023.7 mb 0.00 in0.0 mm 0.00 in0.0 mm 0.00 in0.0 mm
02:14 AM 29.7°F-1.3°C 25.2°F-3.8°C 83% 0.7 mph SSW1.1 kmh SSW 1.6 mph2.6 kmh 30.23 in1023.7 mb 0.00 in0.0 mm 0.00 in0.0 mm 0.00 in0.0 mm
02:19 AM 29.5°F-1.4°C 25.0°F-3.9°C 83% 0.2 mph E0.3 kmh E 1.1 mph1.8 kmh 30.23 in1023.7 mb 0.00 in0.0 mm 0.00 in0.0 mm 0.00 in0.0 mm
02:24 AM 29.7°F-1.3°C 25.2°F-3.8°C 83% Calm Calm -- 30.23 in1023.7 mb 0.00 in0.0 mm 0.00 in0.0 mm 0.00 in0.0 mm
02:29 AM 29.5°F-1.4°C 25.2°F-3.8°C 84% 0.9 mph NE1.4 kmh NE 1.1 mph1.8 kmh 30.23 in1023.7 mb 0.00 in0.0 mm 0.00 in0.0 mm 0.00 in0.0 mm
02:34 AM 29.3°F-1.5°C 25.0°F-3.9°C 84% 1.8 mph ENE2.9 kmh ENE 2.2 mph3.5 kmh 30.23 in1023.7 mb 0.00 in0.0 mm 0.00 in0.0 mm 0.00 in0.0 mm
02:39 AM 29.5°F-1.4°C 25.2°F-3.8°C 84% 1.3 mph ENE2.1 kmh ENE 1.6 mph2.6 kmh 30.23 in1023.7 mb 0.00 in0.0 mm 0.00 in0.0 mm 0.00 in0.0 mm
02:44 AM 29.7°F-1.3°C 25.3°F-3.7°C 84% 1.1 mph NE1.8 kmh NE 1.3 mph2.1 kmh 30.22 in1023.4 mb 0.00 in0.0 mm 0.00 in0.0 mm 0.00 in0.0 mm
02:49 AM 29.5°F-1.4°C 25.0°F-3.9°C 83% 1.3 mph NE2.1 kmh NE 1.8 mph2.9 kmh 30.22 in1023.4 mb 0.00 in0.0 mm 0.00 in0.0 mm 0.00 in0.0 mm
02:54 AM 29.5°F-1.4°C 25.0°F-3.9°C 83% 1.3 mph NE2.1 kmh NE 2.0 mph3.2 kmh 30.22 in1023.4 mb 0.00 in0.0 mm 0.00 in0.0 mm 0.00 in0.0 mm
02:59 AM 29.3°F-1.5°C 24.8°F-4.0°C 83% 1.1 mph NE1.8 kmh NE 1.8 mph2.9 kmh 30.22 in1023.4 mb 0.00 in0.0 mm 0.00 in0.0 mm 0.00 in0.0 mm
03:04 AM 29.3°F-1.5°C 24.8°F-4.0°C 83% 1.6 mph ENE2.6 kmh ENE 2.5 mph4.0 kmh 30.22 in1023.4 mb 0.00 in0.0 mm 0.00 in0.0 mm 0.00 in0.0 mm
03:09 AM 29.3°F-1.5°C 24.8°F-4.0°C 83% 1.6 mph E2.6 kmh E 2.5 mph4.0 kmh 30.22 in1023.4 mb 0.00 in0.0 mm 0.00 in0.0 mm 0.00 in0.0 mm
03:14 AM 29.3°F-1.5°C 24.8°F-4.0°C 83% 0.9 mph SE1.4 kmh SE 1.6 mph2.6 kmh 30.22 in1023.4 mb 0.00 in0.0 mm 0.00 in0.0 mm 0.00 in0.0 mm
03:19 AM 29.3°F-1.5°C 24.8°F-4.0°C 83% 1.1 mph ENE1.8 kmh ENE 1.8 mph2.9 kmh 30.22 in1023.4 mb 0.00 in0.0 mm 0.00 in0.0 mm 0.00 in0.0 mm
03:24 AM 29.1°F-1.6°C 24.6°F-4.1°C 83% 2.0 mph NE3.2 kmh NE 2.7 mph4.3 kmh 30.22 in1023.4 mb 0.00 in0.0 mm 0.00 in0.0 mm 0.00 in0.0 mm
03:29 AM 29.1°F-1.6°C 24.6°F-4.1°C 83% 1.6 mph E2.6 kmh E 2.0 mph3.2 kmh 30.22 in1023.4 mb 0.00 in0.0 mm 0.00 in0.0 mm 0.00 in0.0 mm
03:34 AM 28.9°F-1.7°C 24.4°F-4.2°C 83% 1.8 mph ENE2.9 kmh ENE 2.2 mph3.5 kmh 30.21 in1023.0 mb 0.00 in0.0 mm 0.00 in0.0 mm 0.00 in0.0 mm
03:39 AM 28.9°F-1.7°C 24.8°F-4.0°C 84% 1.6 mph ENE2.6 kmh ENE 2.5 mph4.0 kmh 30.20 in1022.7 mb 0.00 in0.0 mm 0.00 in0.0 mm 0.00 in0.0 mm
03:44 AM 28.8°F-1.8°C 24.3°F-4.3°C 83% 1.6 mph ENE2.6 kmh ENE 2.7 mph4.3 kmh 30.20 in1022.7 mb 0.00 in0.0 mm 0.00 in0.0 mm 0.00 in0.0 mm
03:49 AM 28.8°F-1.8°C 24.3°F-4.3°C 83% 2.2 mph NE3.5 kmh NE 3.4 mph5.5 kmh 30.20 in1022.7 mb 0.00 in0.0 mm 0.00 in0.0 mm 0.00 in0.0 mm
03:54 AM 28.8°F-1.8°C 24.3°F-4.3°C 83% 2.7 mph NNE4.3 kmh NNE 4.0 mph6.4 kmh 30.20 in1022.7 mb 0.00 in0.0 mm 0.00 in0.0 mm 0.00 in0.0 mm
03:59 AM 28.4°F-2.0°C 23.4°F-4.8°C 81% 1.8 mph E2.9 kmh E 3.8 mph6.1 kmh 30.19 in1022.4 mb 0.00 in0.0 mm 0.00 in0.0 mm 0.00 in0.0 mm
04:04 AM 28.4°F-2.0°C 24.3°F-4.3°C 84% 1.3 mph E2.1 kmh E 2.7 mph4.3 kmh 30.19 in1022.4 mb 0.00 in0.0 mm 0.00 in0.0 mm 0.00 in0.0 mm
04:09 AM 28.4°F-2.0°C 23.9°F-4.5°C 83% 1.6 mph ENE2.6 kmh ENE 2.9 mph4.7 kmh 30.19 in1022.4 mb 0.00 in0.0 mm 0.00 in0.0 mm 0.00 in0.0 mm
04:14 AM 28.4°F-2.0°C 23.9°F-4.5°C 83% 2.5 mph E4.0 kmh E 2.9 mph4.7 kmh 30.19 in1022.4 mb 0.00 in0.0 mm 0.00 in0.0 mm 0.00 in0.0 mm
04:19 AM 28.4°F-2.0°C 23.9°F-4.5°C 83% 2.5 mph E4.0 kmh E 3.6 mph5.8 kmh 30.19 in1022.4 mb 0.00 in0.0 mm 0.00 in0.0 mm 0.00 in0.0 mm
04:24 AM 28.4°F-2.0°C 24.3°F-4.3°C 84% 1.6 mph ENE2.6 kmh ENE 1.8 mph2.9 kmh 30.19 in1022.4 mb 0.00 in0.0 mm 0.00 in0.0 mm 0.00 in0.0 mm
04:29 AM 28.4°F-2.0°C 23.9°F-4.5°C 83% 0.7 mph ENE1.1 kmh ENE 1.8 mph2.9 kmh 30.19 in1022.4 mb 0.00 in0.0 mm 0.00 in0.0 mm 0.00 in0.0 mm
04:34 AM 28.6°F-1.9°C 24.4°F-4.2°C 84% 1.8 mph E2.9 kmh E 2.7 mph4.3 kmh 30.19 in1022.4 mb 0.00 in0.0 mm 0.00 in0.0 mm 0.00 in0.0 mm
04:39 AM 28.4°F-2.0°C 23.9°F-4.5°C 83% 1.8 mph ESE2.9 kmh ESE 2.2 mph3.5 kmh 30.19 in1022.4 mb 0.00 in0.0 mm 0.00 in0.0 mm 0.00 in0.0 mm
04:44 AM 28.2°F-2.1°C 23.7°F-4.6°C 83% 2.7 mph S4.3 kmh S 4.9 mph7.9 kmh 30.20 in1022.7 mb 0.00 in0.0 mm 0.00 in0.0 mm 0.00 in0.0 mm
04:49 AM 28.2°F-2.1°C 23.7°F-4.6°C 83% 1.6 mph SE2.6 kmh SE 2.5 mph4.0 kmh 30.20 in1022.7 mb 0.00 in0.0 mm 0.00 in0.0 mm 0.00 in0.0 mm
04:54 AM 28.4°F-2.0°C 23.9°F-4.5°C 83% 0.7 mph E1.1 kmh E 1.6 mph2.6 kmh 30.19 in1022.4 mb 0.00 in0.0 mm 0.00 in0.0 mm 0.00 in0.0 mm
04:59 AM 28.4°F-2.0°C 23.9°F-4.5°C 83% 1.1 mph E1.8 kmh E 2.9 mph4.7 kmh 30.19 in1022.4 mb 0.00 in0.0 mm 0.00 in0.0 mm 0.00 in0.0 mm
05:04 AM 28.4°F-2.0°C 23.9°F-4.5°C 83% 1.8 mph E2.9 kmh E 2.9 mph4.7 kmh 30.19 in1022.4 mb 0.00 in0.0 mm 0.00 in0.0 mm 0.00 in0.0 mm
05:09 AM 28.4°F-2.0°C 23.4°F-4.8°C 81% 0.7 mph E1.1 kmh E 2.7 mph4.3 kmh 30.19 in1022.4 mb 0.00 in0.0 mm 0.00 in0.0 mm 0.00 in0.0 mm
05:14 AM 28.2°F-2.1°C 23.7°F-4.6°C 83% 2.0 mph E3.2 kmh E 3.4 mph5.5 kmh 30.19 in1022.4 mb 0.00 in0.0 mm 0.00 in0.0 mm 0.00 in0.0 mm
05:19 AM 28.2°F-2.1°C 23.7°F-4.6°C 83% 2.0 mph ENE3.2 kmh ENE 3.1 mph5.0 kmh 30.19 in1022.4 mb 0.00 in0.0 mm 0.00 in0.0 mm 0.00 in0.0 mm
05:24 AM 28.0°F-2.2°C 23.0°F-5.0°C 81% 1.8 mph E2.9 kmh E 2.9 mph4.7 kmh 30.19 in1022.4 mb 0.00 in0.0 mm 0.00 in0.0 mm 0.00 in0.0 mm
05:29 AM 28.2°F-2.1°C 23.7°F-4.6°C 83% 1.8 mph E2.9 kmh E 2.2 mph3.5 kmh 30.18 in1022.0 mb 0.00 in0.0 mm 0.00 in0.0 mm 0.00 in0.0 mm
05:34 AM 28.0°F-2.2°C 23.0°F-5.0°C 81% 2.7 mph ESE4.3 kmh ESE 4.3 mph6.9 kmh 30.18 in1022.0 mb 0.00 in0.0 mm 0.00 in0.0 mm 0.00 in0.0 mm
05:39 AM 28.0°F-2.2°C 23.0°F-5.0°C 81% 1.6 mph E2.6 kmh E 2.0 mph3.2 kmh 30.18 in1022.0 mb 0.00 in0.0 mm 0.00 in0.0 mm 0.00 in0.0 mm
05:44 AM 28.0°F-2.2°C 23.0°F-5.0°C 81% 1.3 mph ESE2.1 kmh ESE 1.8 mph2.9 kmh 30.19 in1022.4 mb 0.00 in0.0 mm 0.00 in0.0 mm 0.00 in0.0 mm
05:49 AM 28.0°F-2.2°C 23.5°F-4.7°C 83% 1.6 mph ESE2.6 kmh ESE 2.7 mph4.3 kmh 30.19 in1022.4 mb 0.00 in0.0 mm 0.00 in0.0 mm 0.00 in0.0 mm
05:54 AM 28.2°F-2.1°C 23.2°F-4.9°C 81% 1.6 mph ENE2.6 kmh ENE 2.0 mph3.2 kmh 30.19 in1022.4 mb 0.00 in0.0 mm 0.00 in0.0 mm 0.00 in0.0 mm
05:59 AM 28.0°F-2.2°C 23.0°F-5.0°C 81% 2.0 mph ESE3.2 kmh ESE 3.1 mph5.0 kmh 30.19 in1022.4 mb 0.00 in0.0 mm 0.00 in0.0 mm 0.00 in0.0 mm
06:04 AM 28.0°F-2.2°C 23.0°F-5.0°C 81% 1.8 mph ENE2.9 kmh ENE 2.7 mph4.3 kmh 30.19 in1022.4 mb 0.00 in0.0 mm 0.00 in0.0 mm 0.00 in0.0 mm
06:09 AM 28.0°F-2.2°C 23.0°F-5.0°C 81% 1.3 mph E2.1 kmh E 2.5 mph4.0 kmh 30.19 in1022.4 mb 0.00 in0.0 mm 0.00 in0.0 mm 0.00 in0.0 mm
06:14 AM 27.9°F-2.3°C 22.8°F-5.1°C 81% 1.8 mph ENE2.9 kmh ENE 2.2 mph3.5 kmh 30.19 in1022.4 mb 0.00 in0.0 mm 0.00 in0.0 mm 0.00 in0.0 mm
06:19 AM 27.9°F-2.3°C 22.8°F-5.1°C 81% 1.3 mph ESE2.1 kmh ESE 2.2 mph3.5 kmh 30.19 in1022.4 mb 0.00 in0.0 mm 0.00 in0.0 mm 0.00 in0.0 mm
06:24 AM 27.9°F-2.3°C 22.8°F-5.1°C 81% 1.8 mph ESE2.9 kmh ESE 3.6 mph5.8 kmh 30.19 in1022.4 mb 0.00 in0.0 mm 0.00 in0.0 mm 0.00 in0.0 mm
06:29 AM 27.9°F-2.3°C 22.8°F-5.1°C 81% 1.6 mph E2.6 kmh E 2.7 mph4.3 kmh 30.19 in1022.4 mb 0.00 in0.0 mm 0.00 in0.0 mm 0.00 in0.0 mm
06:34 AM 27.9°F-2.3°C 22.8°F-5.1°C 81% 2.0 mph SE3.2 kmh SE 2.5 mph4.0 kmh 30.19 in1022.4 mb 0.00 in0.0 mm 0.00 in0.0 mm 0.00 in0.0 mm
06:39 AM 27.9°F-2.3°C 22.8°F-5.1°C 81% 2.0 mph E3.2 kmh E 2.7 mph4.3 kmh 30.20 in1022.7 mb 0.00 in0.0 mm 0.00 in0.0 mm 0.00 in0.0 mm
06:44 AM 27.9°F-2.3°C 22.8°F-5.1°C 81% 2.5 mph E4.0 kmh E 3.6 mph5.8 kmh 30.20 in1022.7 mb 0.00 in0.0 mm 0.00 in0.0 mm 0.00 in0.0 mm
06:49 AM 27.7°F-2.4°C 22.6°F-5.2°C 81% 1.3 mph E2.1 kmh E 1.8 mph2.9 kmh 30.20 in1022.7 mb 0.00 in0.0 mm 0.00 in0.0 mm 0.00 in0.0 mm
06:54 AM 27.9°F-2.3°C 23.4°F-4.8°C 83% 1.8 mph ENE2.9 kmh ENE 2.5 mph4.0 kmh 30.19 in1022.4 mb 0.00 in0.0 mm 0.00 in0.0 mm 0.00 in0.0 mm
06:59 AM 27.9°F-2.3°C 22.8°F-5.1°C 81% 1.8 mph E2.9 kmh E 2.2 mph3.5 kmh 30.19 in1022.4 mb 0.00 in0.0 mm 0.00 in0.0 mm 0.00 in0.0 mm
07:04 AM 27.9°F-2.3°C 22.8°F-5.1°C 81% 1.1 mph ESE1.8 kmh ESE 2.2 mph3.5 kmh 30.19 in1022.4 mb 0.00 in0.0 mm 0.00 in0.0 mm 0.00 in0.0 mm
07:09 AM 27.7°F-2.4°C 23.2°F-4.9°C 83% 1.6 mph ESE2.6 kmh ESE 2.5 mph4.0 kmh 30.18 in1022.0 mb 0.00 in0.0 mm 0.00 in0.0 mm 0.00 in0.0 mm
07:14 AM 27.7°F-2.4°C 23.2°F-4.9°C 83% 2.9 mph ESE4.7 kmh ESE 4.3 mph6.9 kmh 30.18 in1022.0 mb 0.00 in0.0 mm 0.00 in0.0 mm 0.00 in0.0 mm
07:19 AM 27.5°F-2.5°C 22.5°F-5.3°C 81% 2.5 mph E4.0 kmh E 3.1 mph5.0 kmh 30.18 in1022.0 mb 0.00 in0.0 mm 0.00 in0.0 mm 0.00 in0.0 mm
07:24 AM 27.5°F-2.5°C 23.0°F-5.0°C 83% 1.6 mph ESE2.6 kmh ESE 2.0 mph3.2 kmh 30.18 in1022.0 mb 0.00 in0.0 mm 0.00 in0.0 mm 0.00 in0.0 mm
07:29 AM 27.5°F-2.5°C 23.0°F-5.0°C 83% 1.8 mph E2.9 kmh E 2.2 mph3.5 kmh 30.17 in1021.7 mb 0.00 in0.0 mm 0.00 in0.0 mm 0.00 in0.0 mm
07:34 AM 27.5°F-2.5°C 23.0°F-5.0°C 83% 2.7 mph ESE4.3 kmh ESE 3.6 mph5.8 kmh 30.17 in1021.7 mb 0.00 in0.0 mm 0.00 in0.0 mm 0.00 in0.0 mm
07:39 AM 27.5°F-2.5°C 23.0°F-5.0°C 83% 2.2 mph ESE3.5 kmh ESE 4.0 mph6.4 kmh 30.17 in1021.7 mb 0.00 in0.0 mm 0.00 in0.0 mm 0.00 in0.0 mm
07:44 AM 27.5°F-2.5°C 23.0°F-5.0°C 83% 0.7 mph ESE1.1 kmh ESE 2.0 mph3.2 kmh 30.16 in1021.3 mb 0.00 in0.0 mm 0.00 in0.0 mm 0.00 in0.0 mm
07:49 AM 27.5°F-2.5°C 23.0°F-5.0°C 83% 1.6 mph ESE2.6 kmh ESE 2.5 mph4.0 kmh 30.16 in1021.3 mb 0.00 in0.0 mm 0.00 in0.0 mm 0.00 in0.0 mm
07:54 AM 27.5°F-2.5°C 23.0°F-5.0°C 83% 2.2 mph ESE3.5 kmh ESE 3.6 mph5.8 kmh 30.16 in1021.3 mb 0.00 in0.0 mm 0.00 in0.0 mm 0.00 in0.0 mm
07:59 AM 27.5°F-2.5°C 23.0°F-5.0°C 83% 2.0 mph ESE3.2 kmh ESE 2.9 mph4.7 kmh 30.16 in1021.3 mb 0.00 in0.0 mm 0.00 in0.0 mm 0.00 in0.0 mm
08:04 AM 27.5°F-2.5°C 23.0°F-5.0°C 83% 0.7 mph NE1.1 kmh NE 2.0 mph3.2 kmh 30.15 in1021.0 mb 0.00 in0.0 mm 0.00 in0.0 mm 0.00 in0.0 mm
08:09 AM 27.3°F-2.6°C 22.8°F-5.1°C 83% 1.3 mph NE2.1 kmh NE 2.5 mph4.0 kmh 30.16 in1021.3 mb 0.00 in0.0 mm 0.00 in0.0 mm 0.00 in0.0 mm
08:14 AM 27.3°F-2.6°C 22.8°F-5.1°C 83% 2.5 mph ESE4.0 kmh ESE 3.8 mph6.1 kmh 30.15 in1021.0 mb 0.00 in0.0 mm 0.00 in0.0 mm 0.00 in0.0 mm
08:19 AM 27.3°F-2.6°C 22.8°F-5.1°C 83% 2.2 mph SE3.5 kmh SE 3.4 mph5.5 kmh 30.15 in1021.0 mb 0.00 in0.0 mm 0.00 in0.0 mm 0.00 in0.0 mm
08:24 AM 27.3°F-2.6°C 23.2°F-4.9°C 84% 2.2 mph SSE3.5 kmh SSE 3.6 mph5.8 kmh 30.16 in1021.3 mb 0.00 in0.0 mm 0.00 in0.0 mm 0.00 in0.0 mm
08:29 AM 27.1°F-2.7°C 22.6°F-5.2°C 83% 2.5 mph SE4.0 kmh SE 3.4 mph5.5 kmh 30.15 in1021.0 mb 0.00 in0.0 mm 0.00 in0.0 mm 0.00 in0.0 mm
08:34 AM 27.3°F-2.6°C 22.8°F-5.1°C 83% 2.7 mph ESE4.3 kmh ESE 4.0 mph6.4 kmh 30.15 in1021.0 mb 0.00 in0.0 mm 0.00 in0.0 mm 0.00 in0.0 mm
08:39 AM 27.3°F-2.6°C 23.2°F-4.9°C 84% 2.2 mph ESE3.5 kmh ESE 2.9 mph4.7 kmh 30.14 in1020.7 mb 0.00 in0.0 mm 0.00 in0.0 mm 0.00 in0.0 mm
08:44 AM 27.3°F-2.6°C 22.8°F-5.1°C 83% 2.2 mph E3.5 kmh E 3.6 mph5.8 kmh 30.14 in1020.7 mb 0.00 in0.0 mm 0.00 in0.0 mm 0.00 in0.0 mm
08:49 AM 27.3°F-2.6°C 23.2°F-4.9°C 84% 0.9 mph E1.4 kmh E 1.8 mph2.9 kmh 30.14 in1020.7 mb 0.00 in0.0 mm 0.00 in0.0 mm 0.00 in0.0 mm
08:54 AM 27.3°F-2.6°C 22.8°F-5.1°C 83% 3.1 mph ESE5.0 kmh ESE 4.3 mph6.9 kmh 30.13 in1020.3 mb 0.00 in0.0 mm 0.00 in0.0 mm 0.00 in0.0 mm
08:59 AM 27.3°F-2.6°C 22.8°F-5.1°C 83% 2.7 mph E4.3 kmh E 4.9 mph7.9 kmh 30.12 in1020.0 mb 0.00 in0.0 mm 0.00 in0.0 mm 0.00 in0.0 mm
09:04 AM 27.3°F-2.6°C 22.8°F-5.1°C 83% 2.5 mph SE4.0 kmh SE 4.3 mph6.9 kmh 30.12 in1020.0 mb 0.00 in0.0 mm 0.00 in0.0 mm 0.00 in0.0 mm
09:09 AM 27.3°F-2.6°C 23.2°F-4.9°C 84% 2.2 mph ESE3.5 kmh ESE 3.1 mph5.0 kmh 30.11 in1019.6 mb 0.00 in0.0 mm 0.00 in0.0 mm 0.00 in0.0 mm
09:14 AM 27.3°F-2.6°C 22.8°F-5.1°C 83% 1.8 mph E2.9 kmh E 2.9 mph4.7 kmh 30.11 in1019.6 mb 0.00 in0.0 mm 0.00 in0.0 mm 0.00 in0.0 mm
09:19 AM 27.3°F-2.6°C 23.2°F-4.9°C 84% 2.7 mph ENE4.3 kmh ENE 6.0 mph9.7 kmh 30.10 in1019.3 mb 0.00 in0.0 mm 0.00 in0.0 mm 0.00 in0.0 mm
09:24 AM 27.5°F-2.5°C 23.4°F-4.8°C 84% 4.3 mph SE6.9 kmh SE 6.0 mph9.7 kmh 30.10 in1019.3 mb 0.00 in0.0 mm 0.00 in0.0 mm 0.00 in0.0 mm
09:29 AM 27.5°F-2.5°C 23.0°F-5.0°C 83% 3.1 mph SE5.0 kmh SE 4.3 mph6.9 kmh 30.10 in1019.3 mb 0.00 in0.0 mm 0.00 in0.0 mm 0.00 in0.0 mm
09:34 AM 27.5°F-2.5°C 23.0°F-5.0°C 83% 1.8 mph NE2.9 kmh NE 2.9 mph4.7 kmh 30.10 in1019.3 mb 0.00 in0.0 mm 0.00 in0.0 mm 0.00 in0.0 mm
09:39 AM 27.5°F-2.5°C 23.0°F-5.0°C 83% 1.8 mph ESE2.9 kmh ESE 4.0 mph6.4 kmh 30.10 in1019.3 mb 0.00 in0.0 mm 0.00 in0.0 mm 0.00 in0.0 mm
09:44 AM 27.5°F-2.5°C 23.0°F-5.0°C 83% 3.1 mph E5.0 kmh E 5.6 mph9.0 kmh 30.11 in1019.6 mb 0.00 in0.0 mm 0.00 in0.0 mm 0.00 in0.0 mm
09:49 AM 27.5°F-2.5°C 23.0°F-5.0°C 83% 2.2 mph E3.5 kmh E 4.3 mph6.9 kmh 30.10 in1019.3 mb 0.00 in0.0 mm 0.00 in0.0 mm 0.00 in0.0 mm
09:54 AM 27.7°F-2.4°C 23.2°F-4.9°C 83% 2.2 mph E3.5 kmh E 3.8 mph6.1 kmh 30.10 in1019.3 mb 0.00 in0.0 mm 0.00 in0.0 mm 0.00 in0.0 mm
09:59 AM 27.7°F-2.4°C 23.2°F-4.9°C 83% 2.5 mph E4.0 kmh E 5.1 mph8.2 kmh 30.10 in1019.3 mb 0.00 in0.0 mm 0.00 in0.0 mm 0.00 in0.0 mm
10:04 AM 27.7°F-2.4°C 23.2°F-4.9°C 83% 1.8 mph E2.9 kmh E 3.1 mph5.0 kmh 30.10 in1019.3 mb 0.00 in0.0 mm 0.00 in0.0 mm 0.00 in0.0 mm
10:09 AM 27.7°F-2.4°C 23.2°F-4.9°C 83% 1.3 mph E2.1 kmh E 2.2 mph3.5 kmh 30.10 in1019.3 mb 0.00 in0.0 mm 0.00 in0.0 mm 0.00 in0.0 mm
10:14 AM 27.7°F-2.4°C 22.6°F-5.2°C 81% 2.2 mph SE3.5 kmh SE 3.6 mph5.8 kmh 30.10 in1019.3 mb 0.00 in0.0 mm 0.00 in0.0 mm 0.00 in0.0 mm
10:19 AM 27.7°F-2.4°C 22.6°F-5.2°C 81% 2.0 mph ESE3.2 kmh ESE 4.7 mph7.6 kmh 30.10 in1019.3 mb 0.00 in0.0 mm 0.00 in0.0 mm 0.00 in0.0 mm
10:24 AM 27.9°F-2.3°C 23.4°F-4.8°C 83% 2.7 mph SE4.3 kmh SE 7.6 mph12.2 kmh 30.11 in1019.6 mb 0.00 in0.0 mm 0.00 in0.0 mm 0.00 in0.0 mm
10:29 AM 27.9°F-2.3°C 22.8°F-5.1°C 81% 2.2 mph ESE3.5 kmh ESE 3.4 mph5.5 kmh 30.10 in1019.3 mb 0.00 in0.0 mm 0.00 in0.0 mm 0.00 in0.0 mm
10:34 AM 27.9°F-2.3°C 22.8°F-5.1°C 81% 2.7 mph ESE4.3 kmh ESE 3.4 mph5.5 kmh 30.10 in1019.3 mb 0.00 in0.0 mm 0.00 in0.0 mm 0.00 in0.0 mm
10:39 AM 28.0°F-2.2°C 23.5°F-4.7°C 83% 2.5 mph SE4.0 kmh SE 5.8 mph9.3 kmh 30.09 in1019.0 mb 0.00 in0.0 mm 0.00 in0.0 mm 0.00 in0.0 mm
10:44 AM 28.0°F-2.2°C 23.0°F-5.0°C 81% 1.8 mph E2.9 kmh E 3.6 mph5.8 kmh 30.09 in1019.0 mb 0.00 in0.0 mm 0.00 in0.0 mm 0.00 in0.0 mm
10:49 AM 28.0°F-2.2°C 23.0°F-5.0°C 81% 2.2 mph E3.5 kmh E 3.4 mph5.5 kmh 30.08 in1018.6 mb 0.00 in0.0 mm 0.00 in0.0 mm 0.00 in0.0 mm
10:54 AM 28.0°F-2.2°C 23.0°F-5.0°C 81% 2.2 mph E3.5 kmh E 3.6 mph5.8 kmh 30.08 in1018.6 mb 0.00 in0.0 mm 0.00 in0.0 mm 0.00 in0.0 mm
10:59 AM 28.0°F-2.2°C 23.0°F-5.0°C 81% 1.8 mph ESE2.9 kmh ESE 2.9 mph4.7 kmh 30.09 in1019.0 mb 0.00 in0.0 mm 0.00 in0.0 mm 0.00 in0.0 mm
11:04 AM 28.2°F-2.1°C 23.2°F-4.9°C 81% 2.2 mph E3.5 kmh E 3.6 mph5.8 kmh 30.09 in1019.0 mb 0.00 in0.0 mm 0.00 in0.0 mm 0.00 in0.0 mm
11:09 AM 28.2°F-2.1°C 23.2°F-4.9°C 81% 1.6 mph ESE2.6 kmh ESE 3.6 mph5.8 kmh 30.08 in1018.6 mb 0.00 in0.0 mm 0.00 in0.0 mm 0.00 in0.0 mm
11:14 AM 28.2°F-2.1°C 22.8°F-5.1°C 80% 2.5 mph SE4.0 kmh SE 4.0 mph6.4 kmh 30.08 in1018.6 mb 0.00 in0.0 mm 0.00 in0.0 mm 0.00 in0.0 mm
11:19 AM 28.2°F-2.1°C 23.2°F-4.9°C 81% 2.2 mph ESE3.5 kmh ESE 2.9 mph4.7 kmh 30.09 in1019.0 mb 0.00 in0.0 mm 0.00 in0.0 mm 0.00 in0.0 mm
11:24 AM 28.4°F-2.0°C 23.4°F-4.8°C 81% 2.2 mph ESE3.5 kmh ESE 3.6 mph5.8 kmh 30.09 in1019.0 mb 0.00 in0.0 mm 0.00 in0.0 mm 0.00 in0.0 mm
11:29 AM 28.4°F-2.0°C 23.0°F-5.0°C 80% 1.3 mph ESE2.1 kmh ESE 3.6 mph5.8 kmh 30.09 in1019.0 mb 0.00 in0.0 mm 0.00 in0.0 mm 0.00 in0.0 mm
11:34 AM 28.4°F-2.0°C 23.0°F-5.0°C 80% 2.0 mph ESE3.2 kmh ESE 4.3 mph6.9 kmh 30.09 in1019.0 mb 0.00 in0.0 mm 0.00 in0.0 mm 0.00 in0.0 mm
11:39 AM 28.6°F-1.9°C 23.2°F-4.9°C 80% 2.0 mph ESE3.2 kmh ESE 3.1 mph5.0 kmh 30.09 in1019.0 mb 0.00 in0.0 mm 0.00 in0.0 mm 0.00 in0.0 mm
11:44 AM 28.6°F-1.9°C 23.2°F-4.9°C 80% 2.2 mph E3.5 kmh E 3.8 mph6.1 kmh 30.08 in1018.6 mb 0.00 in0.0 mm 0.00 in0.0 mm 0.00 in0.0 mm
11:49 AM 28.6°F-1.9°C 22.8°F-5.1°C 79% 2.9 mph E4.7 kmh E 4.0 mph6.4 kmh 30.07 in1018.3 mb 0.00 in0.0 mm 0.00 in0.0 mm 0.00 in0.0 mm
11:54 AM 28.6°F-1.9°C 23.2°F-4.9°C 80% 2.5 mph ESE4.0 kmh ESE 3.4 mph5.5 kmh 30.07 in1018.3 mb 0.00 in0.0 mm 0.00 in0.0 mm 0.00 in0.0 mm
11:59 AM 28.8°F-1.8°C 23.4°F-4.8°C 80% 2.0 mph ESE3.2 kmh ESE 4.0 mph6.4 kmh 30.06 in1017.9 mb 0.00 in0.0 mm 0.00 in0.0 mm 0.00 in0.0 mm
12:04 PM 28.8°F-1.8°C 23.4°F-4.8°C 80% 2.5 mph SE4.0 kmh SE 4.0 mph6.4 kmh 30.06 in1017.9 mb 0.00 in0.0 mm 0.00 in0.0 mm 0.00 in0.0 mm
12:09 PM 28.9°F-1.7°C 23.5°F-4.7°C 80% 2.2 mph NE3.5 kmh NE 3.4 mph5.5 kmh 30.04 in1017.3 mb 0.00 in0.0 mm 0.00 in0.0 mm 0.00 in0.0 mm
12:14 PM 29.1°F-1.6°C 23.7°F-4.6°C 80% 1.8 mph ENE2.9 kmh ENE 2.5 mph4.0 kmh 30.04 in1017.3 mb 0.00 in0.0 mm 0.00 in0.0 mm 0.00 in0.0 mm
12:19 PM 29.1°F-1.6°C 23.7°F-4.6°C 80% 2.0 mph ENE3.2 kmh ENE 2.9 mph4.7 kmh 30.03 in1016.9 mb 0.00 in0.0 mm 0.00 in0.0 mm 0.00 in0.0 mm
12:24 PM 29.1°F-1.6°C 23.7°F-4.6°C 80% 2.5 mph E4.0 kmh E 3.8 mph6.1 kmh 30.03 in1016.9 mb 0.00 in0.0 mm 0.00 in0.0 mm 0.00 in0.0 mm
12:29 PM 29.3°F-1.5°C 23.9°F-4.5°C 80% 2.5 mph ESE4.0 kmh ESE 4.0 mph6.4 kmh 30.02 in1016.6 mb 0.00 in0.0 mm 0.00 in0.0 mm 0.00 in0.0 mm
12:34 PM 29.3°F-1.5°C 23.5°F-4.7°C 79% 2.7 mph ESE4.3 kmh ESE 4.3 mph6.9 kmh 30.02 in1016.6 mb 0.00 in0.0 mm 0.00 in0.0 mm 0.00 in0.0 mm
12:39 PM 29.3°F-1.5°C 23.9°F-4.5°C 80% 1.8 mph E2.9 kmh E 2.7 mph4.3 kmh 30.02 in1016.6 mb 0.00 in0.0 mm 0.00 in0.0 mm 0.00 in0.0 mm
12:44 PM 29.5°F-1.4°C 24.1°F-4.4°C 80% 2.5 mph ESE4.0 kmh ESE 4.5 mph7.2 kmh 30.01 in1016.3 mb 0.00 in0.0 mm 0.00 in0.0 mm 0.00 in0.0 mm
12:49 PM 29.5°F-1.4°C 24.1°F-4.4°C 80% 1.8 mph E2.9 kmh E 3.1 mph5.0 kmh 30.01 in1016.3 mb 0.00 in0.0 mm 0.00 in0.0 mm 0.00 in0.0 mm
12:54 PM 29.5°F-1.4°C 24.4°F-4.2°C 81% 3.1 mph E5.0 kmh E 4.0 mph6.4 kmh 30.01 in1016.3 mb 0.00 in0.0 mm 0.00 in0.0 mm 0.00 in0.0 mm
12:59 PM 29.7°F-1.3°C 25.2°F-3.8°C 83% 1.8 mph ESE2.9 kmh ESE 2.7 mph4.3 kmh 30.00 in1015.9 mb 0.00 in0.0 mm 0.00 in0.0 mm 0.00 in0.0 mm
01:04 PM 29.8°F-1.2°C 25.3°F-3.7°C 83% 2.5 mph ESE4.0 kmh ESE 2.9 mph4.7 kmh 30.00 in1015.9 mb 0.00 in0.0 mm 0.00 in0.0 mm 0.00 in0.0 mm
01:09 PM 29.8°F-1.2°C 25.3°F-3.7°C 83% 1.6 mph E2.6 kmh E 2.5 mph4.0 kmh 29.99 in1015.6 mb 0.00 in0.0 mm 0.00 in0.0 mm 0.00 in0.0 mm
01:14 PM 29.8°F-1.2°C 25.3°F-3.7°C 83% 1.6 mph E2.6 kmh E 2.9 mph4.7 kmh 29.98 in1015.2 mb 0.00 in0.0 mm 0.00 in0.0 mm 0.00 in0.0 mm
01:19 PM 29.7°F-1.3°C 25.2°F-3.8°C 83% 2.0 mph NE3.2 kmh NE 2.9 mph4.7 kmh 29.98 in1015.2 mb 0.00 in0.0 mm 0.00 in0.0 mm 0.00 in0.0 mm
01:24 PM 29.5°F-1.4°C 25.0°F-3.9°C 83% 1.6 mph NE2.6 kmh NE 2.7 mph4.3 kmh 29.98 in1015.2 mb 0.00 in0.0 mm 0.00 in0.0 mm 0.00 in0.0 mm
01:29 PM 29.5°F-1.4°C 25.2°F-3.8°C 84% 2.2 mph NE3.5 kmh NE 3.6 mph5.8 kmh 29.97 in1014.9 mb 0.00 in0.0 mm 0.00 in0.0 mm 0.00 in0.0 mm
01:34 PM 29.5°F-1.4°C 25.5°F-3.6°C 85% 1.6 mph E2.6 kmh E 2.5 mph4.0 kmh 29.96 in1014.6 mb 0.00 in0.0 mm 0.00 in0.0 mm 0.00 in0.0 mm
01:39 PM 29.5°F-1.4°C 25.5°F-3.6°C 85% 1.6 mph E2.6 kmh E 2.0 mph3.2 kmh 29.95 in1014.2 mb 0.00 in0.0 mm 0.00 in0.0 mm 0.00 in0.0 mm
01:44 PM 29.5°F-1.4°C 25.5°F-3.6°C 85% 0.4 mph ESE0.6 kmh ESE 2.7 mph4.3 kmh 29.95 in1014.2 mb 0.00 in0.0 mm 0.00 in0.0 mm 0.00 in0.0 mm
01:49 PM 29.5°F-1.4°C 25.5°F-3.6°C 85% 0.9 mph ENE1.4 kmh ENE 2.0 mph3.2 kmh 29.95 in1014.2 mb 0.00 in0.0 mm 0.00 in0.0 mm 0.00 in0.0 mm
01:54 PM 29.5°F-1.4°C 25.5°F-3.6°C 85% 1.3 mph ENE2.1 kmh ENE 2.2 mph3.5 kmh 29.95 in1014.2 mb 0.00 in0.0 mm 0.00 in0.0 mm 0.00 in0.0 mm
01:59 PM 29.5°F-1.4°C 25.9°F-3.4°C 86% 0.9 mph ENE1.4 kmh ENE 1.6 mph2.6 kmh 29.95 in1014.2 mb 0.00 in0.0 mm 0.00 in0.0 mm 0.00 in0.0 mm
02:04 PM 29.5°F-1.4°C 25.9°F-3.4°C 86% 1.1 mph NE1.8 kmh NE 2.2 mph3.5 kmh 29.94 in1013.9 mb 0.00 in0.0 mm 0.00 in0.0 mm 0.00 in0.0 mm
02:09 PM 29.3°F-1.5°C 25.3°F-3.7°C 85% 1.6 mph NNE2.6 kmh NNE 2.7 mph4.3 kmh 29.94 in1013.9 mb 0.00 in0.0 mm 0.00 in0.0 mm 0.00 in0.0 mm
02:14 PM 29.3°F-1.5°C 25.7°F-3.5°C 86% 1.1 mph NNE1.8 kmh NNE 1.3 mph2.1 kmh 29.94 in1013.9 mb 0.00 in0.0 mm 0.00 in0.0 mm 0.00 in0.0 mm
02:19 PM 29.1°F-1.6°C 25.5°F-3.6°C 86% 1.8 mph NE2.9 kmh NE 2.7 mph4.3 kmh 29.94 in1013.9 mb 0.00 in0.0 mm 0.00 in0.0 mm 0.00 in0.0 mm
02:24 PM 29.1°F-1.6°C 25.5°F-3.6°C 86% 2.0 mph ENE3.2 kmh ENE 2.7 mph4.3 kmh 29.94 in1013.9 mb 0.00 in0.0 mm 0.00 in0.0 mm 0.00 in0.0 mm
02:29 PM 29.1°F-1.6°C 25.5°F-3.6°C 86% 2.0 mph NNE3.2 kmh NNE 2.7 mph4.3 kmh 29.94 in1013.9 mb 0.00 in0.0 mm 0.00 in0.0 mm 0.00 in0.0 mm
02:34 PM 29.1°F-1.6°C 25.5°F-3.6°C 86% 2.2 mph NNE3.5 kmh NNE 2.9 mph4.7 kmh 29.93 in1013.5 mb 0.00 in0.0 mm 0.00 in0.0 mm 0.00 in0.0 mm
02:39 PM 29.1°F-1.6°C 25.5°F-3.6°C 86% 1.6 mph NE2.6 kmh NE 2.7 mph4.3 kmh 29.93 in1013.5 mb 0.00 in0.0 mm 0.00 in0.0 mm 0.00 in0.0 mm
02:44 PM 29.1°F-1.6°C 25.5°F-3.6°C 86% 2.0 mph NE3.2 kmh NE 3.1 mph5.0 kmh 29.93 in1013.5 mb 0.00 in0.0 mm 0.00 in0.0 mm 0.00 in0.0 mm
02:49 PM 29.1°F-1.6°C 25.5°F-3.6°C 86% 2.0 mph NNE3.2 kmh NNE 2.7 mph4.3 kmh 29.93 in1013.5 mb 0.00 in0.0 mm 0.00 in0.0 mm 0.00 in0.0 mm
02:54 PM 28.9°F-1.7°C 25.3°F-3.7°C 86% 1.3 mph NE2.1 kmh NE 2.0 mph3.2 kmh 29.92 in1013.2 mb 0.00 in0.0 mm 0.00 in0.0 mm 0.00 in0.0 mm
02:59 PM 28.9°F-1.7°C 25.3°F-3.7°C 86% 1.8 mph NE2.9 kmh NE 2.7 mph4.3 kmh 29.91 in1012.9 mb 0.00 in0.0 mm 0.00 in0.0 mm 0.00 in0.0 mm
03:04 PM 28.8°F-1.8°C 25.2°F-3.8°C 86% 2.2 mph NE3.5 kmh NE 3.1 mph5.0 kmh 29.91 in1012.9 mb 0.00 in0.0 mm 0.00 in0.0 mm 0.00 in0.0 mm
03:09 PM 28.8°F-1.8°C 25.2°F-3.8°C 86% 2.7 mph ENE4.3 kmh ENE 3.6 mph5.8 kmh 29.91 in1012.9 mb 0.00 in0.0 mm 0.00 in0.0 mm 0.00 in0.0 mm
03:14 PM 28.6°F-1.9°C 24.6°F-4.1°C 85% 2.7 mph NE4.3 kmh NE 3.6 mph5.8 kmh 29.91 in1012.9 mb 0.00 in0.0 mm 0.00 in0.0 mm 0.00 in0.0 mm
03:19 PM 28.6°F-1.9°C 25.0°F-3.9°C 86% 1.8 mph ENE2.9 kmh ENE 2.7 mph4.3 kmh 29.90 in1012.5 mb 0.00 in0.0 mm 0.00 in0.0 mm 0.00 in0.0 mm
03:24 PM 28.6°F-1.9°C 25.0°F-3.9°C 86% 2.7 mph N4.3 kmh N 3.6 mph5.8 kmh 29.90 in1012.5 mb 0.00 in0.0 mm 0.00 in0.0 mm 0.00 in0.0 mm
03:29 PM 28.6°F-1.9°C 25.0°F-3.9°C 86% 1.8 mph N2.9 kmh N 2.9 mph4.7 kmh 29.89 in1012.2 mb 0.00 in0.0 mm 0.00 in0.0 mm 0.00 in0.0 mm
03:34 PM 28.4°F-2.0°C 24.8°F-4.0°C 86% 2.2 mph NE3.5 kmh NE 3.1 mph5.0 kmh 29.89 in1012.2 mb 0.00 in0.0 mm 0.00 in0.0 mm 0.00 in0.0 mm
03:39 PM 28.2°F-2.1°C 24.6°F-4.1°C 86% 2.5 mph ENE4.0 kmh ENE 2.9 mph4.7 kmh 29.88 in1011.9 mb 0.00 in0.0 mm 0.00 in0.0 mm 0.00 in0.0 mm
03:44 PM 28.2°F-2.1°C 24.6°F-4.1°C 86% 1.8 mph NE2.9 kmh NE 2.9 mph4.7 kmh 29.88 in1011.9 mb 0.00 in0.0 mm 0.00 in0.0 mm 0.00 in0.0 mm
03:49 PM 28.0°F-2.2°C 24.1°F-4.4°C 85% 2.2 mph NE3.5 kmh NE 2.9 mph4.7 kmh 29.88 in1011.9 mb 0.00 in0.0 mm 0.00 in0.0 mm 0.00 in0.0 mm
03:54 PM 27.9°F-2.3°C 23.9°F-4.5°C 85% 2.0 mph NE3.2 kmh NE 2.5 mph4.0 kmh 29.87 in1011.5 mb 0.00 in0.0 mm 0.00 in0.0 mm 0.00 in0.0 mm
03:59 PM 27.9°F-2.3°C 23.9°F-4.5°C 85% 3.1 mph NE5.0 kmh NE 4.0 mph6.4 kmh 29.87 in1011.5 mb 0.00 in0.0 mm 0.00 in0.0 mm 0.00 in0.0 mm
04:04 PM 27.7°F-2.4°C 23.7°F-4.6°C 85% 3.1 mph ENE5.0 kmh ENE 4.9 mph7.9 kmh 29.87 in1011.5 mb 0.00 in0.0 mm 0.00 in0.0 mm 0.00 in0.0 mm
04:09 PM 27.5°F-2.5°C 23.5°F-4.7°C 85% 2.7 mph ENE4.3 kmh ENE 4.0 mph6.4 kmh 29.86 in1011.2 mb 0.00 in0.0 mm 0.00 in0.0 mm 0.00 in0.0 mm
04:14 PM 27.5°F-2.5°C 23.9°F-4.5°C 86% 2.7 mph NE4.3 kmh NE 3.6 mph5.8 kmh 29.86 in1011.2 mb 0.00 in0.0 mm 0.00 in0.0 mm 0.00 in0.0 mm
04:19 PM 27.5°F-2.5°C 23.9°F-4.5°C 86% 2.5 mph E4.0 kmh E 4.3 mph6.9 kmh 29.86 in1011.2 mb 0.00 in0.0 mm 0.00 in0.0 mm 0.00 in0.0 mm
04:24 PM 27.5°F-2.5°C 23.9°F-4.5°C 86% 1.8 mph NE2.9 kmh NE 2.9 mph4.7 kmh 29.86 in1011.2 mb 0.00 in0.0 mm 0.00 in0.0 mm 0.00 in0.0 mm
04:29 PM 27.5°F-2.5°C 23.9°F-4.5°C 86% 3.1 mph NE5.0 kmh NE 5.4 mph8.7 kmh 29.86 in1011.2 mb 0.00 in0.0 mm 0.00 in0.0 mm 0.00 in0.0 mm
04:34 PM 27.3°F-2.6°C 24.3°F-4.3°C 88% 2.2 mph E3.5 kmh E 3.4 mph5.5 kmh 29.86 in1011.2 mb 0.00 in0.0 mm 0.00 in0.0 mm 0.00 in0.0 mm
04:39 PM 27.3°F-2.6°C 24.3°F-4.3°C 88% 2.5 mph NE4.0 kmh NE 3.1 mph5.0 kmh 29.86 in1011.2 mb 0.00 in0.0 mm 0.00 in0.0 mm 0.00 in0.0 mm
04:44 PM 27.3°F-2.6°C 24.3°F-4.3°C 88% 1.8 mph NE2.9 kmh NE 2.2 mph3.5 kmh 29.86 in1011.2 mb 0.00 in0.0 mm 0.00 in0.0 mm 0.00 in0.0 mm
04:49 PM 27.5°F-2.5°C 24.4°F-4.2°C 88% 3.1 mph ENE5.0 kmh ENE 4.3 mph6.9 kmh 29.86 in1011.2 mb 0.00 in0.0 mm 0.00 in0.0 mm 0.00 in0.0 mm
04:54 PM 27.5°F-2.5°C 24.4°F-4.2°C 88% 2.2 mph NE3.5 kmh NE 2.9 mph4.7 kmh 29.85 in1010.8 mb 0.00 in0.0 mm 0.00 in0.0 mm 0.00 in0.0 mm
04:59 PM 27.5°F-2.5°C 24.4°F-4.2°C 88% 1.8 mph ENE2.9 kmh ENE 2.5 mph4.0 kmh 29.85 in1010.8 mb 0.00 in0.0 mm 0.00 in0.0 mm 0.00 in0.0 mm
05:04 PM 27.3°F-2.6°C 24.3°F-4.3°C 88% 2.0 mph ENE3.2 kmh ENE 3.6 mph5.8 kmh 29.85 in1010.8 mb 0.00 in0.0 mm 0.00 in0.0 mm 0.00 in0.0 mm
05:09 PM 27.5°F-2.5°C 24.6°F-4.1°C 89% 2.5 mph NE4.0 kmh NE 3.4 mph5.5 kmh 29.85 in1010.8 mb 0.00 in0.0 mm 0.00 in0.0 mm 0.00 in0.0 mm
05:14 PM 27.3°F-2.6°C 24.4°F-4.2°C 89% 3.4 mph NNE5.5 kmh NNE 6.3 mph10.1 kmh 29.85 in1010.8 mb 0.00 in0.0 mm 0.00 in0.0 mm 0.00 in0.0 mm
05:19 PM 27.3°F-2.6°C 24.4°F-4.2°C 89% 2.2 mph NE3.5 kmh NE 4.3 mph6.9 kmh 29.85 in1010.8 mb 0.00 in0.0 mm 0.00 in0.0 mm 0.00 in0.0 mm
05:24 PM 27.3°F-2.6°C 24.4°F-4.2°C 89% 1.8 mph NE2.9 kmh NE 4.0 mph6.4 kmh 29.84 in1010.5 mb 0.00 in0.0 mm 0.00 in0.0 mm 0.00 in0.0 mm
05:29 PM 27.3°F-2.6°C 24.4°F-4.2°C 89% 4.3 mph NE6.9 kmh NE 6.7 mph10.8 kmh 29.84 in1010.5 mb 0.00 in0.0 mm 0.00 in0.0 mm 0.00 in0.0 mm
05:34 PM 27.3°F-2.6°C 24.4°F-4.2°C 89% 2.2 mph NE3.5 kmh NE 3.8 mph6.1 kmh 29.84 in1010.5 mb 0.00 in0.0 mm 0.00 in0.0 mm 0.00 in0.0 mm
05:39 PM 27.3°F-2.6°C 24.4°F-4.2°C 89% 2.7 mph NE4.3 kmh NE 4.9 mph7.9 kmh 29.83 in1010.2 mb 0.00 in0.0 mm 0.00 in0.0 mm 0.00 in0.0 mm
05:44 PM 27.3°F-2.6°C 24.4°F-4.2°C 89% 2.9 mph NE4.7 kmh NE 4.3 mph6.9 kmh 29.83 in1010.2 mb 0.00 in0.0 mm 0.00 in0.0 mm 0.00 in0.0 mm
05:49 PM 27.3°F-2.6°C 24.4°F-4.2°C 89% 3.1 mph ENE5.0 kmh ENE 4.5 mph7.2 kmh 29.83 in1010.2 mb 0.00 in0.0 mm 0.00 in0.0 mm 0.00 in0.0 mm
05:54 PM 27.3°F-2.6°C 24.4°F-4.2°C 89% 2.5 mph NE4.0 kmh NE 4.0 mph6.4 kmh 29.83 in1010.2 mb 0.00 in0.0 mm 0.00 in0.0 mm 0.00 in0.0 mm
05:59 PM 27.3°F-2.6°C 24.8°F-4.0°C 90% 1.3 mph NNE2.1 kmh NNE 2.7 mph4.3 kmh 29.82 in1009.8 mb 0.00 in0.0 mm 0.00 in0.0 mm 0.00 in0.0 mm
06:04 PM 27.3°F-2.6°C 24.4°F-4.2°C 89% 2.2 mph NE3.5 kmh NE 2.7 mph4.3 kmh 29.82 in1009.8 mb 0.00 in0.0 mm 0.00 in0.0 mm 0.00 in0.0 mm
06:09 PM 27.3°F-2.6°C 24.4°F-4.2°C 89% 2.5 mph NE4.0 kmh NE 4.3 mph6.9 kmh 29.81 in1009.5 mb 0.00 in0.0 mm 0.00 in0.0 mm 0.00 in0.0 mm
06:14 PM 27.1°F-2.7°C 24.3°F-4.3°C 89% 2.5 mph E4.0 kmh E 4.3 mph6.9 kmh 29.81 in1009.5 mb 0.00 in0.0 mm 0.00 in0.0 mm 0.00 in0.0 mm
06:19 PM 27.1°F-2.7°C 24.3°F-4.3°C 89% 3.4 mph NE5.5 kmh NE 6.3 mph10.1 kmh 29.80 in1009.1 mb 0.00 in0.0 mm 0.00 in0.0 mm 0.00 in0.0 mm
06:24 PM 27.1°F-2.7°C 24.3°F-4.3°C 89% 2.0 mph NNE3.2 kmh NNE 3.1 mph5.0 kmh 29.80 in1009.1 mb 0.00 in0.0 mm 0.00 in0.0 mm 0.00 in0.0 mm
06:29 PM 27.1°F-2.7°C 24.3°F-4.3°C 89% 3.1 mph ENE5.0 kmh ENE 3.8 mph6.1 kmh 29.80 in1009.1 mb 0.00 in0.0 mm 0.00 in0.0 mm 0.00 in0.0 mm
06:34 PM 27.0°F-2.8°C 24.1°F-4.4°C 89% 2.7 mph E4.3 kmh E 4.3 mph6.9 kmh 29.80 in1009.1 mb 0.00 in0.0 mm 0.00 in0.0 mm 0.00 in0.0 mm
06:39 PM 27.0°F-2.8°C 24.1°F-4.4°C 89% 3.6 mph NE5.8 kmh NE 5.6 mph9.0 kmh 29.79 in1008.8 mb 0.00 in0.0 mm 0.00 in0.0 mm 0.00 in0.0 mm
06:44 PM 26.8°F-2.9°C 23.9°F-4.5°C 89% 2.5 mph NE4.0 kmh NE 3.6 mph5.8 kmh 29.78 in1008.5 mb 0.00 in0.0 mm 0.00 in0.0 mm 0.00 in0.0 mm
06:49 PM 26.8°F-2.9°C 23.9°F-4.5°C 89% 2.7 mph ENE4.3 kmh ENE 5.6 mph9.0 kmh 29.78 in1008.5 mb 0.00 in0.0 mm 0.00 in0.0 mm 0.00 in0.0 mm
06:54 PM 26.8°F-2.9°C 23.9°F-4.5°C 89% 2.7 mph ENE4.3 kmh ENE 4.3 mph6.9 kmh 29.78 in1008.5 mb 0.00 in0.0 mm 0.00 in0.0 mm 0.00 in0.0 mm
06:59 PM 26.8°F-2.9°C 23.9°F-4.5°C 89% 2.9 mph E4.7 kmh E 4.0 mph6.4 kmh 29.77 in1008.1 mb 0.00 in0.0 mm 0.00 in0.0 mm 0.00 in0.0 mm
07:04 PM 26.6°F-3.0°C 23.7°F-4.6°C 89% 3.8 mph NE6.1 kmh NE 6.0 mph9.7 kmh 29.77 in1008.1 mb 0.00 in0.0 mm 0.00 in0.0 mm 0.00 in0.0 mm
07:09 PM 26.6°F-3.0°C 23.7°F-4.6°C 89% 2.9 mph NNE4.7 kmh NNE 4.7 mph7.6 kmh 29.76 in1007.8 mb 0.00 in0.0 mm 0.00 in0.0 mm 0.00 in0.0 mm
07:14 PM 26.6°F-3.0°C 23.7°F-4.6°C 89% 3.6 mph ENE5.8 kmh ENE 6.9 mph11.1 kmh 29.77 in1008.1 mb 0.00 in0.0 mm 0.00 in0.0 mm 0.00 in0.0 mm
07:19 PM 26.4°F-3.1°C 23.5°F-4.7°C 89% 1.8 mph NE2.9 kmh NE 2.5 mph4.0 kmh 29.78 in1008.5 mb 0.00 in0.0 mm 0.00 in0.0 mm 0.00 in0.0 mm
07:24 PM 26.6°F-3.0°C 23.7°F-4.6°C 89% 4.0 mph NE6.4 kmh NE 7.4 mph11.9 kmh 29.77 in1008.1 mb 0.00 in0.0 mm 0.00 in0.0 mm 0.00 in0.0 mm
07:29 PM 26.4°F-3.1°C 23.4°F-4.8°C 88% 3.1 mph NE5.0 kmh NE 6.0 mph9.7 kmh 29.77 in1008.1 mb 0.00 in0.0 mm 0.00 in0.0 mm 0.00 in0.0 mm
07:34 PM 26.2°F-3.2°C 23.2°F-4.9°C 88% 4.7 mph NE7.6 kmh NE 7.2 mph11.6 kmh 29.77 in1008.1 mb 0.00 in0.0 mm 0.00 in0.0 mm 0.00 in0.0 mm
07:39 PM 26.2°F-3.2°C 23.4°F-4.8°C 89% 3.6 mph ENE5.8 kmh ENE 5.8 mph9.3 kmh 29.77 in1008.1 mb 0.00 in0.0 mm 0.00 in0.0 mm 0.00 in0.0 mm
07:44 PM 26.2°F-3.2°C 23.4°F-4.8°C 89% 1.6 mph ENE2.6 kmh ENE 4.0 mph6.4 kmh 29.78 in1008.5 mb 0.00 in0.0 mm 0.00 in0.0 mm 0.00 in0.0 mm
07:49 PM 26.4°F-3.1°C 23.5°F-4.7°C 89% 2.2 mph N3.5 kmh N 4.0 mph6.4 kmh 29.77 in1008.1 mb 0.00 in0.0 mm 0.00 in0.0 mm 0.00 in0.0 mm
07:54 PM 26.4°F-3.1°C 23.5°F-4.7°C 89% 3.1 mph NE5.0 kmh NE 4.5 mph7.2 kmh 29.77 in1008.1 mb 0.00 in0.0 mm 0.00 in0.0 mm 0.00 in0.0 mm
07:59 PM 26.4°F-3.1°C 23.5°F-4.7°C 89% 2.2 mph NE3.5 kmh NE 3.1 mph5.0 kmh 29.77 in1008.1 mb 0.00 in0.0 mm 0.00 in0.0 mm 0.00 in0.0 mm
08:04 PM 26.2°F-3.2°C 23.2°F-4.9°C 88% 4.0 mph NE6.4 kmh NE 7.2 mph11.6 kmh 29.77 in1008.1 mb 0.00 in0.0 mm 0.00 in0.0 mm 0.00 in0.0 mm
08:09 PM 26.2°F-3.2°C 23.4°F-4.8°C 89% 2.0 mph ENE3.2 kmh ENE 3.8 mph6.1 kmh 29.77 in1008.1 mb 0.00 in0.0 mm 0.00 in0.0 mm 0.00 in0.0 mm
08:14 PM 26.2°F-3.2°C 23.4°F-4.8°C 89% 5.1 mph NE8.2 kmh NE 7.6 mph12.2 kmh 29.77 in1008.1 mb 0.00 in0.0 mm 0.00 in0.0 mm 0.00 in0.0 mm
08:19 PM 26.2°F-3.2°C 23.4°F-4.8°C 89% 1.8 mph E2.9 kmh E 3.4 mph5.5 kmh 29.77 in1008.1 mb 0.00 in0.0 mm 0.00 in0.0 mm 0.00 in0.0 mm
08:24 PM 26.2°F-3.2°C 23.4°F-4.8°C 89% 2.0 mph NE3.2 kmh NE 3.4 mph5.5 kmh 29.77 in1008.1 mb 0.00 in0.0 mm 0.00 in0.0 mm 0.00 in0.0 mm
08:29 PM 26.1°F-3.3°C 23.2°F-4.9°C 89% 2.5 mph NE4.0 kmh NE 4.3 mph6.9 kmh 29.77 in1008.1 mb 0.00 in0.0 mm 0.00 in0.0 mm 0.00 in0.0 mm
08:34 PM 26.2°F-3.2°C 23.4°F-4.8°C 89% 3.1 mph NE5.0 kmh NE 5.8 mph9.3 kmh 29.77 in1008.1 mb 0.00 in0.0 mm 0.00 in0.0 mm 0.00 in0.0 mm
08:39 PM 26.1°F-3.3°C 23.2°F-4.9°C 89% 2.2 mph NE3.5 kmh NE 4.5 mph7.2 kmh 29.77 in1008.1 mb 0.00 in0.0 mm 0.00 in0.0 mm 0.00 in0.0 mm
08:44 PM 26.1°F-3.3°C 23.2°F-4.9°C 89% 2.5 mph NE4.0 kmh NE 5.1 mph8.2 kmh 29.76 in1007.8 mb 0.00 in0.0 mm 0.00 in0.0 mm 0.00 in0.0 mm
08:49 PM 25.9°F-3.4°C 23.0°F-5.0°C 89% 3.4 mph NNE5.5 kmh NNE 4.5 mph7.2 kmh 29.76 in1007.8 mb 0.00 in0.0 mm 0.00 in0.0 mm 0.00 in0.0 mm
08:54 PM 25.9°F-3.4°C 23.0°F-5.0°C 89% 3.6 mph NE5.8 kmh NE 5.8 mph9.3 kmh 29.75 in1007.5 mb 0.00 in0.0 mm 0.00 in0.0 mm 0.00 in0.0 mm
08:59 PM 25.9°F-3.4°C 23.0°F-5.0°C 89% 2.2 mph NNE3.5 kmh NNE 3.6 mph5.8 kmh 29.75 in1007.5 mb 0.00 in0.0 mm 0.00 in0.0 mm 0.00 in0.0 mm
09:04 PM 25.9°F-3.4°C 23.0°F-5.0°C 89% 5.6 mph NE9.0 kmh NE 9.4 mph15.1 kmh 29.74 in1007.1 mb 0.00 in0.0 mm 0.00 in0.0 mm 0.00 in0.0 mm
09:09 PM 25.7°F-3.5°C 22.8°F-5.1°C 89% 3.4 mph NNE5.5 kmh NNE 4.7 mph7.6 kmh 29.74 in1007.1 mb 0.00 in0.0 mm 0.00 in0.0 mm 0.00 in0.0 mm
09:14 PM 25.7°F-3.5°C 22.8°F-5.1°C 89% 4.0 mph NE6.4 kmh NE 5.4 mph8.7 kmh 29.74 in1007.1 mb 0.00 in0.0 mm 0.00 in0.0 mm 0.00 in0.0 mm
09:19 PM 25.7°F-3.5°C 22.8°F-5.1°C 89% 2.5 mph NE4.0 kmh NE 3.6 mph5.8 kmh 29.74 in1007.1 mb 0.00 in0.0 mm 0.00 in0.0 mm 0.00 in0.0 mm
09:24 PM 25.5°F-3.6°C 22.8°F-5.1°C 89% 3.8 mph NE6.1 kmh NE 6.7 mph10.8 kmh 29.74 in1007.1 mb 0.00 in0.0 mm 0.00 in0.0 mm 0.00 in0.0 mm
09:29 PM 25.5°F-3.6°C 22.8°F-5.1°C 89% 4.5 mph NE7.2 kmh NE 7.2 mph11.6 kmh 29.74 in1007.1 mb 0.00 in0.0 mm 0.00 in0.0 mm 0.00 in0.0 mm
09:34 PM 25.5°F-3.6°C 22.8°F-5.1°C 89% 3.4 mph ENE5.5 kmh ENE 5.1 mph8.2 kmh 29.74 in1007.1 mb 0.00 in0.0 mm 0.00 in0.0 mm 0.00 in0.0 mm
09:39 PM 25.5°F-3.6°C 22.8°F-5.1°C 89% 3.4 mph NE5.5 kmh NE 7.2 mph11.6 kmh 29.74 in1007.1 mb 0.00 in0.0 mm 0.00 in0.0 mm 0.00 in0.0 mm
09:44 PM 25.5°F-3.6°C 22.8°F-5.1°C 89% 1.8 mph N2.9 kmh N 2.7 mph4.3 kmh 29.73 in1006.8 mb 0.00 in0.0 mm 0.00 in0.0 mm 0.00 in0.0 mm
09:49 PM 25.3°F-3.7°C 22.8°F-5.1°C 90% 4.9 mph NNE7.9 kmh NNE 6.3 mph10.1 kmh 29.72 in1006.4 mb 0.00 in0.0 mm 0.00 in0.0 mm 0.00 in0.0 mm
09:54 PM 25.3°F-3.7°C 22.8°F-5.1°C 90% 3.1 mph NNE5.0 kmh NNE 5.8 mph9.3 kmh 29.72 in1006.4 mb 0.00 in0.0 mm 0.00 in0.0 mm 0.00 in0.0 mm
09:59 PM 25.3°F-3.7°C 22.8°F-5.1°C 90% 3.6 mph NE5.8 kmh NE 6.3 mph10.1 kmh 29.72 in1006.4 mb 0.00 in0.0 mm 0.00 in0.0 mm 0.00 in0.0 mm
10:04 PM 25.3°F-3.7°C 22.6°F-5.2°C 89% 4.5 mph NE7.2 kmh NE 6.7 mph10.8 kmh 29.71 in1006.1 mb 0.00 in0.0 mm 0.00 in0.0 mm 0.00 in0.0 mm
10:09 PM 25.3°F-3.7°C 22.6°F-5.2°C 89% 2.9 mph NNE4.7 kmh NNE 6.5 mph10.5 kmh 29.72 in1006.4 mb 0.00 in0.0 mm 0.00 in0.0 mm 0.00 in0.0 mm
10:14 PM 25.2°F-3.8°C 22.5°F-5.3°C 89% 4.3 mph NNE6.9 kmh NNE 5.4 mph8.7 kmh 29.73 in1006.8 mb 0.00 in0.0 mm 0.00 in0.0 mm 0.00 in0.0 mm
10:19 PM 25.2°F-3.8°C 22.5°F-5.3°C 89% 3.6 mph NE5.8 kmh NE 8.3 mph13.4 kmh 29.72 in1006.4 mb 0.00 in0.0 mm 0.00 in0.0 mm 0.00 in0.0 mm
10:24 PM 25.2°F-3.8°C 22.5°F-5.3°C 89% 4.7 mph NE7.6 kmh NE 6.5 mph10.5 kmh 29.73 in1006.8 mb 0.00 in0.0 mm 0.00 in0.0 mm 0.00 in0.0 mm
10:29 PM 25.0°F-3.9°C 22.3°F-5.4°C 89% 3.6 mph NE5.8 kmh NE 5.8 mph9.3 kmh 29.71 in1006.1 mb 0.00 in0.0 mm 0.00 in0.0 mm 0.00 in0.0 mm
10:34 PM 25.0°F-3.9°C 22.3°F-5.4°C 89% 4.3 mph NE6.9 kmh NE 7.4 mph11.9 kmh 29.70 in1005.8 mb 0.00 in0.0 mm 0.00 in0.0 mm 0.00 in0.0 mm
10:39 PM 24.8°F-4.0°C 22.1°F-5.5°C 89% 4.3 mph N6.9 kmh N 8.3 mph13.4 kmh 29.70 in1005.8 mb 0.00 in0.0 mm 0.00 in0.0 mm 0.00 in0.0 mm
10:44 PM 24.6°F-4.1°C 21.9°F-5.6°C 89% 5.6 mph N9.0 kmh N 11.2 mph18.0 kmh 29.70 in1005.8 mb 0.00 in0.0 mm 0.00 in0.0 mm 0.00 in0.0 mm
10:49 PM 24.4°F-4.2°C 21.7°F-5.7°C 89% 6.7 mph NNE10.8 kmh NNE 9.2 mph14.8 kmh 29.70 in1005.8 mb 0.00 in0.0 mm 0.00 in0.0 mm 0.00 in0.0 mm
10:54 PM 24.4°F-4.2°C 21.7°F-5.7°C 89% 4.7 mph NNE7.6 kmh NNE 7.6 mph12.2 kmh 29.70 in1005.8 mb 0.00 in0.0 mm 0.00 in0.0 mm 0.00 in0.0 mm
10:59 PM 24.3°F-4.3°C 21.6°F-5.8°C 89% 6.7 mph NNE10.8 kmh NNE 11.4 mph18.3 kmh 29.70 in1005.8 mb 0.00 in0.0 mm 0.00 in0.0 mm 0.00 in0.0 mm
11:04 PM 24.1°F-4.4°C 21.4°F-5.9°C 89% 6.3 mph NE10.1 kmh NE 9.2 mph14.8 kmh 29.69 in1005.4 mb 0.00 in0.0 mm 0.00 in0.0 mm 0.00 in0.0 mm
11:09 PM 23.9°F-4.5°C 21.2°F-6.0°C 89% 3.6 mph NNE5.8 kmh NNE 6.3 mph10.1 kmh 29.70 in1005.8 mb 0.00 in0.0 mm 0.00 in0.0 mm 0.00 in0.0 mm
11:14 PM 23.9°F-4.5°C 21.2°F-6.0°C 89% 6.0 mph N9.7 kmh N 9.2 mph14.8 kmh 29.72 in1006.4 mb 0.00 in0.0 mm 0.00 in0.0 mm 0.00 in0.0 mm
11:19 PM 23.9°F-4.5°C 21.4°F-5.9°C 90% 6.3 mph NNE10.1 kmh NNE 10.7 mph17.2 kmh 29.72 in1006.4 mb 0.00 in0.0 mm 0.00 in0.0 mm 0.00 in0.0 mm
11:24 PM 23.7°F-4.6°C 21.2°F-6.0°C 90% 5.8 mph NNE9.3 kmh NNE 8.9 mph14.3 kmh 29.71 in1006.1 mb 0.00 in0.0 mm 0.00 in0.0 mm 0.00 in0.0 mm
11:29 PM 23.7°F-4.6°C 21.2°F-6.0°C 90% 6.5 mph N10.5 kmh N 15.7 mph25.3 kmh 29.72 in1006.4 mb 0.00 in0.0 mm 0.00 in0.0 mm 0.00 in0.0 mm
11:34 PM 23.7°F-4.6°C 21.2°F-6.0°C 90% 4.3 mph NE6.9 kmh NE 7.2 mph11.6 kmh 29.73 in1006.8 mb 0.00 in0.0 mm 0.00 in0.0 mm 0.00 in0.0 mm
11:39 PM 23.7°F-4.6°C 21.2°F-6.0°C 90% 3.8 mph N6.1 kmh N 7.6 mph12.2 kmh 29.73 in1006.8 mb 0.00 in0.0 mm 0.00 in0.0 mm 0.00 in0.0 mm
11:44 PM 23.5°F-4.7°C 20.8°F-6.2°C 89% 4.9 mph NNE7.9 kmh NNE 7.6 mph12.2 kmh 29.71 in1006.1 mb 0.00 in0.0 mm 0.00 in0.0 mm 0.00 in0.0 mm
11:49 PM 23.5°F-4.7°C 20.8°F-6.2°C 89% 5.4 mph NE8.7 kmh NE 7.4 mph11.9 kmh 29.72 in1006.4 mb 0.00 in0.0 mm 0.00 in0.0 mm 0.00 in0.0 mm
11:54 PM 23.5°F-4.7°C 20.8°F-6.2°C 89% 5.8 mph NE9.3 kmh NE 8.3 mph13.4 kmh 29.71 in1006.1 mb 0.00 in0.0 mm 0.00 in0.0 mm 0.00 in0.0 mm
11:59 PM 23.4°F-4.8°C 20.7°F-6.3°C 89% 8.7 mph NNE14.0 kmh NNE 13.4 mph21.6 kmh 29.71 in1006.1 mb 0.00 in0.0 mm 0.00 in0.0 mm 0.00 in0.0 mm